Weather at Flugplatz Buttwil

Public forecast

Using degrees Celsius for public forecast. Weather courtesy of forecast.io.

Closest aviation weather report (METAR) to Flugplatz Buttwil

Closest report is Emmen Air Base, 10.3 nm (19.2 km) S. Retrieved 2020/09/18 16:20 UTC (11 minutes ago):

LSME 181620Z AUTO 02006KT 9999NDV NCD 22/16 Q1020 RMK

Closest aviation forecast (TAF) to Flugplatz Buttwil

Forecast is more than 6 hours old.

Closest forecast is Emmen Air Base, 10.3 nm (19.2 km) S. Retrieved 2020/09/18 10:00 UTC (7 hours ago):

TAF LSME 180925Z 1810/1916 VRB03KT 9999 SCT016 OVC021 BECMG 1812/1815 CAVOK BECMG 1900/1903 7000 SCT006 PROB40 1902/1907 BKN006 PROB30 1903/1906 BKN003 BECMG 1907/1910 CAVOK BECMG 1912/1914 9999 SCT100 PROB30 1912/1916 SHRA SCT060TCU